sensor_id;sensor_type;location;lat;lon;timestamp;pressure;altitude;pressure_sealevel;temperature;humidity
65614;BME280;52283;49.292;10.572;2023-04-19T00:01:59;97106.03;;;7.20;100.00
65614;BME280;52283;49.292;10.572;2023-04-19T00:04:26;97099.25;;;7.02;100.00
65614;BME280;52283;49.292;10.572;2023-04-19T00:06:54;97102.53;;;6.92;100.00
65614;BME280;52283;49.292;10.572;2023-04-19T00:09:22;97092.47;;;6.85;100.00
65614;BME280;52283;49.292;10.572;2023-04-19T00:11:48;97094.19;;;6.92;100.00
65614;BME280;52283;49.292;10.572;2023-04-19T00:14:15;97095.56;;;6.87;100.00
65614;BME280;52283;49.292;10.572;2023-04-19T00:16:41;97088.00;;;6.97;100.00
65614;BME280;52283;49.292;10.572;2023-04-19T00:19:08;97084.13;;;7.03;100.00
65614;BME280;52283;49.292;10.572;2023-04-19T00:21:35;97100.94;;;7.18;100.00
65614;BME280;52283;49.292;10.572;2023-04-19T00:24:01;97089.50;;;7.25;100.00
65614;BME280;52283;49.292;10.572;2023-04-19T00:26:29;97087.78;;;7.37;100.00
65614;BME280;52283;49.292;10.572;2023-04-19T00:28:56;97086.59;;;7.20;100.00
65614;BME280;52283;49.292;10.572;2023-04-19T00:31:22;97093.34;;;7.28;100.00
65614;BME280;52283;49.292;10.572;2023-04-19T00:33:49;97094.47;;;7.12;100.00
65614;BME280;52283;49.292;10.572;2023-04-19T00:36:15;97084.72;;;7.26;100.00
65614;BME280;52283;49.292;10.572;2023-04-19T00:38:42;97086.44;;;7.14;100.00
65614;BME280;52283;49.292;10.572;2023-04-19T00:41:08;97087.38;;;6.93;100.00
65614;BME280;52283;49.292;10.572;2023-04-19T00:43:36;97082.91;;;6.95;100.00
65614;BME280;52283;49.292;10.572;2023-04-19T00:46:02;97082.28;;;7.00;100.00
65614;BME280;52283;49.292;10.572;2023-04-19T00:48:29;97086.91;;;6.94;100.00
65614;BME280;52283;49.292;10.572;2023-04-19T00:50:56;97073.50;;;6.93;100.00
65614;BME280;52283;49.292;10.572;2023-04-19T00:53:22;97072.56;;;6.96;100.00
65614;BME280;52283;49.292;10.572;2023-04-19T00:55:49;97069.00;;;6.95;100.00
65614;BME280;52283;49.292;10.572;2023-04-19T00:58:16;97064.84;;;6.82;100.00
65614;BME280;52283;49.292;10.572;2023-04-19T01:00:44;97069.63;;;6.81;100.00
65614;BME280;52283;49.292;10.572;2023-04-19T01:03:10;97068.22;;;6.86;100.00
65614;BME280;52283;49.292;10.572;2023-04-19T01:05:37;97067.16;;;6.83;100.00
65614;BME280;52283;49.292;10.572;2023-04-19T01:08:04;97058.66;;;6.96;100.00
65614;BME280;52283;49.292;10.572;2023-04-19T01:10:31;97055.44;;;6.97;100.00
65614;BME280;52283;49.292;10.572;2023-04-19T01:12:57;97055.09;;;7.04;100.00
65614;BME280;52283;49.292;10.572;2023-04-19T01:15:24;97052.19;;;7.08;100.00
65614;BME280;52283;49.292;10.572;2023-04-19T01:17:52;97051.56;;;7.04;100.00
65614;BME280;52283;49.292;10.572;2023-04-19T01:20:20;97056.50;;;7.09;100.00
65614;BME280;52283;49.292;10.572;2023-04-19T01:22:48;97053.91;;;6.87;100.00
65614;BME280;52283;49.292;10.572;2023-04-19T01:25:14;97051.75;;;6.91;100.00
65614;BME280;52283;49.292;10.572;2023-04-19T01:27:41;97050.34;;;6.96;100.00
65614;BME280;52283;49.292;10.572;2023-04-19T01:30:09;97050.81;;;6.94;100.00
65614;BME280;52283;49.292;10.572;2023-04-19T01:32:35;97047.56;;;6.96;100.00
65614;BME280;52283;49.292;10.572;2023-04-19T01:35:02;97040.91;;;7.02;100.00
65614;BME280;52283;49.292;10.572;2023-04-19T01:37:29;97041.38;;;7.01;100.00
65614;BME280;52283;49.292;10.572;2023-04-19T01:39:57;97027.94;;;6.99;100.00
65614;BME280;52283;49.292;10.572;2023-04-19T01:42:23;97029.94;;;6.99;100.00
65614;BME280;52283;49.292;10.572;2023-04-19T01:44:50;97025.03;;;6.94;100.00
65614;BME280;52283;49.292;10.572;2023-04-19T01:47:17;97025.00;;;7.03;100.00
65614;BME280;52283;49.292;10.572;2023-04-19T01:49:43;97026.72;;;7.00;100.00
65614;BME280;52283;49.292;10.572;2023-04-19T01:52:10;97025.66;;;6.89;100.00
65614;BME280;52283;49.292;10.572;2023-04-19T01:54:36;97020.72;;;6.93;100.00
65614;BME280;52283;49.292;10.572;2023-04-19T01:57:04;97019.00;;;6.95;100.00
65614;BME280;52283;49.292;10.572;2023-04-19T01:59:30;97023.78;;;6.95;100.00
65614;BME280;52283;49.292;10.572;2023-04-19T02:01:57;97023.97;;;6.73;100.00
65614;BME280;52283;49.292;10.572;2023-04-19T02:04:23;97018.09;;;6.80;100.00
65614;BME280;52283;49.292;10.572;2023-04-19T02:06:50;97011.44;;;6.87;100.00
65614;BME280;52283;49.292;10.572;2023-04-19T02:09:16;97011.28;;;6.81;100.00
65614;BME280;52283;49.292;10.572;2023-04-19T02:11:42;97010.22;;;6.88;100.00
65614;BME280;52283;49.292;10.572;2023-04-19T02:14:10;97006.34;;;6.94;100.00
65614;BME280;52283;49.292;10.572;2023-04-19T02:16:37;97006.66;;;6.96;100.00
65614;BME280;52283;49.292;10.572;2023-04-19T02:19:03;97006.34;;;6.94;100.00
65614;BME280;52283;49.292;10.572;2023-04-19T02:21:30;96998.00;;;6.94;100.00
65614;BME280;52283;49.292;10.572;2023-04-19T02:23:57;96994.59;;;6.99;100.00
65614;BME280;52283;49.292;10.572;2023-04-19T02:26:23;96992.75;;;6.96;100.00
65614;BME280;52283;49.292;10.572;2023-04-19T02:28:50;97002.59;;;7.07;100.00
65614;BME280;52283;49.292;10.572;2023-04-19T02:31:18;96995.19;;;7.13;100.00
65614;BME280;52283;49.292;10.572;2023-04-19T02:33:45;96998.28;;;7.15;100.00
65614;BME280;52283;49.292;10.572;2023-04-19T02:36:11;96995.03;;;7.16;100.00
65614;BME280;52283;49.292;10.572;2023-04-19T02:38:38;96993.16;;;7.22;100.00
65614;BME280;52283;49.292;10.572;2023-04-19T02:41:04;96991.47;;;7.16;100.00
65614;BME280;52283;49.292;10.572;2023-04-19T02:43:31;96995.97;;;7.13;100.00
65614;BME280;52283;49.292;10.572;2023-04-19T02:45:57;96994.22;;;7.25;100.00
65614;BME280;52283;49.292;10.572;2023-04-19T02:48:25;97003.03;;;7.23;100.00
65614;BME280;52283;49.292;10.572;2023-04-19T02:50:52;96998.88;;;7.19;100.00
65614;BME280;52283;49.292;10.572;2023-04-19T02:53:18;96992.59;;;7.09;100.00
65614;BME280;52283;49.292;10.572;2023-04-19T02:55:45;96991.81;;;6.99;100.00
65614;BME280;52283;49.292;10.572;2023-04-19T02:58:11;96984.25;;;7.09;100.00
65614;BME280;52283;49.292;10.572;2023-04-19T03:00:37;96992.63;;;6.91;100.00
65614;BME280;52283;49.292;10.572;2023-04-19T03:03:05;96985.63;;;7.04;100.00
65614;BME280;52283;49.292;10.572;2023-04-19T03:05:33;96993.81;;;6.99;100.00
65614;BME280;52283;49.292;10.572;2023-04-19T03:08:00;96987.16;;;7.06;100.00
65614;BME280;52283;49.292;10.572;2023-04-19T03:10:26;96980.09;;;6.95;100.00
65614;BME280;52283;49.292;10.572;2023-04-19T03:12:53;96979.63;;;6.97;100.00
65614;BME280;52283;49.292;10.572;2023-04-19T03:15:19;96976.38;;;6.98;100.00
65614;BME280;52283;49.292;10.572;2023-04-19T03:17:46;96979.19;;;6.89;100.00
65614;BME280;52283;49.292;10.572;2023-04-19T03:20:12;96960.66;;;6.95;100.00
65614;BME280;52283;49.292;10.572;2023-04-19T03:22:42;96964.41;;;6.74;100.00
65614;BME280;52283;49.292;10.572;2023-04-19T03:25:09;96961.44;;;6.87;100.00
65614;BME280;52283;49.292;10.572;2023-04-19T03:27:36;96961.44;;;6.87;100.00
65614;BME280;52283;49.292;10.572;2023-04-19T03:30:04;96955.25;;;6.92;100.00
65614;BME280;52283;49.292;10.572;2023-04-19T03:32:31;96954.03;;;6.84;100.00
65614;BME280;52283;49.292;10.572;2023-04-19T03:34:57;96952.66;;;6.88;100.00
65614;BME280;52283;49.292;10.572;2023-04-19T03:37:24;96961.28;;;6.90;100.00
65614;BME280;52283;49.292;10.572;2023-04-19T03:39:51;96951.56;;;6.86;100.00
65614;BME280;52283;49.292;10.572;2023-04-19T03:42:18;96947.53;;;6.87;100.00
65614;BME280;52283;49.292;10.572;2023-04-19T03:44:44;96946.00;;;6.86;100.00
65614;BME280;52283;49.292;10.572;2023-04-19T03:47:11;96941.56;;;6.79;100.00
65614;BME280;52283;49.292;10.572;2023-04-19T03:49:37;96948.78;;;6.86;100.00
65614;BME280;52283;49.292;10.572;2023-04-19T03:52:04;96940.16;;;6.84;100.00
65614;BME280;52283;49.292;10.572;2023-04-19T03:54:30;96944.66;;;6.72;100.00
65614;BME280;52283;49.292;10.572;2023-04-19T03:56:58;96936.44;;;6.87;100.00
65614;BME280;52283;49.292;10.572;2023-04-19T03:59:24;96933.22;;;6.88;100.00
65614;BME280;52283;49.292;10.572;2023-04-19T04:01:51;96939.56;;;6.70;100.00
65614;BME280;52283;49.292;10.572;2023-04-19T04:04:17;96933.38;;;6.76;100.00
65614;BME280;52283;49.292;10.572;2023-04-19T04:06:44;96929.19;;;6.80;100.00
65614;BME280;52283;49.292;10.572;2023-04-19T04:09:10;96927.31;;;6.86;100.00
65614;BME280;52283;49.292;10.572;2023-04-19T04:11:37;96937.19;;;6.96;100.00
65614;BME280;52283;49.292;10.572;2023-04-19T04:14:06;96936.91;;;6.85;100.00
65614;BME280;52283;49.292;10.572;2023-04-19T04:16:32;96929.81;;;6.84;100.00
65614;BME280;52283;49.292;10.572;2023-04-19T04:18:59;96933.03;;;6.83;100.00
65614;BME280;52283;49.292;10.572;2023-04-19T04:21:25;96930.75;;;6.81;100.00
65614;BME280;52283;49.292;10.572;2023-04-19T04:23:52;96936.59;;;6.92;100.00
65614;BME280;52283;49.292;10.572;2023-04-19T04:26:18;96934.88;;;6.95;100.00
65614;BME280;52283;49.292;10.572;2023-04-19T04:28:46;96941.63;;;7.03;100.00
65614;BME280;52283;49.292;10.572;2023-04-19T04:31:13;96941.16;;;7.04;100.00
65614;BME280;52283;49.292;10.572;2023-04-19T04:33:43;96941.63;;;7.03;100.00
65614;BME280;52283;49.292;10.572;2023-04-19T04:36:10;96942.56;;;7.00;100.00
65614;BME280;52283;49.292;10.572;2023-04-19T04:38:37;96934.53;;;7.02;100.00
65614;BME280;52283;49.292;10.572;2023-04-19T04:41:03;96943.03;;;6.98;100.00
65614;BME280;52283;49.292;10.572;2023-04-19T04:43:30;96928.69;;;7.00;100.00
65614;BME280;52283;49.292;10.572;2023-04-19T04:45:57;96927.72;;;7.12;100.00
65614;BME280;52283;49.292;10.572;2023-04-19T04:48:25;96936.31;;;7.23;100.00
65614;BME280;52283;49.292;10.572;2023-04-19T04:50:51;96930.44;;;7.21;100.00
65614;BME280;52283;49.292;10.572;2023-04-19T04:53:18;96939.44;;;7.07;100.00
65614;BME280;52283;49.292;10.572;2023-04-19T04:55:44;96932.16;;;7.19;100.00
65614;BME280;52283;49.292;10.572;2023-04-19T04:58:11;96939.91;;;7.15;100.00
65614;BME280;52283;49.292;10.572;2023-04-19T05:00:37;96934.22;;;7.09;100.00
65614;BME280;52283;49.292;10.572;2023-04-19T05:03:04;96935.25;;;7.21;100.00
65614;BME280;52283;49.292;10.572;2023-04-19T05:05:32;96935.41;;;7.17;100.00
65614;BME280;52283;49.292;10.572;2023-04-19T05:07:58;96936.13;;;7.27;100.00
65614;BME280;52283;49.292;10.572;2023-04-19T05:10:25;96936.06;;;7.03;100.00
65614;BME280;52283;49.292;10.572;2023-04-19T05:12:52;96934.53;;;7.02;100.00
65614;BME280;52283;49.292;10.572;2023-04-19T05:15:18;96925.66;;;7.22;100.00
65614;BME280;52283;49.292;10.572;2023-04-19T05:17:45;96933.94;;;7.40;100.00
65614;BME280;52283;49.292;10.572;2023-04-19T05:20:11;96927.78;;;7.27;100.00
65614;BME280;52283;49.292;10.572;2023-04-19T05:22:39;96938.00;;;7.30;100.00
65614;BME280;52283;49.292;10.572;2023-04-19T05:25:06;96930.09;;;7.28;100.00
65614;BME280;52283;49.292;10.572;2023-04-19T05:27:34;96923.22;;;7.48;100.00
65614;BME280;52283;49.292;10.572;2023-04-19T05:30:00;96919.19;;;7.49;100.00
65614;BME280;52283;49.292;10.572;2023-04-19T05:32:26;96910.22;;;7.54;100.00
65614;BME280;52283;49.292;10.572;2023-04-19T05:34:54;96913.00;;;7.54;100.00
65614;BME280;52283;49.292;10.572;2023-04-19T05:37:20;96912.81;;;7.57;100.00
65614;BME280;52283;49.292;10.572;2023-04-19T05:39:49;96897.38;;;7.56;100.00
65614;BME280;52283;49.292;10.572;2023-04-19T05:42:16;96905.53;;;7.36;100.00
65614;BME280;52283;49.292;10.572;2023-04-19T05:44:42;96901.44;;;7.46;100.00
65614;BME280;52283;49.292;10.572;2023-04-19T05:47:08;96904.50;;;7.57;100.00
65614;BME280;52283;49.292;10.572;2023-04-19T05:49:35;96900.25;;;7.71;100.00
65614;BME280;52283;49.292;10.572;2023-04-19T05:52:02;96902.28;;;7.85;100.00
65614;BME280;52283;49.292;10.572;2023-04-19T05:54:28;96900.94;;;7.81;100.00
65614;BME280;52283;49.292;10.572;2023-04-19T05:57:00;96917.44;;;7.84;100.00
65614;BME280;52283;49.292;10.572;2023-04-19T05:59:26;96906.41;;;7.90;100.00
65614;BME280;52283;49.292;10.572;2023-04-19T06:01:53;96907.84;;;7.85;100.00
65614;BME280;52283;49.292;10.572;2023-04-19T06:04:20;96908.25;;;7.69;100.00
65614;BME280;52283;49.292;10.572;2023-04-19T06:06:46;96902.84;;;7.75;100.00
65614;BME280;52283;49.292;10.572;2023-04-19T06:09:13;96904.78;;;7.59;100.00
65614;BME280;52283;49.292;10.572;2023-04-19T06:11:40;96896.53;;;7.89;100.00
65614;BME280;52283;49.292;10.572;2023-04-19T06:14:08;96895.19;;;7.84;100.00
65614;BME280;52283;49.292;10.572;2023-04-19T06:16:35;96902.06;;;7.98;100.00
65614;BME280;52283;49.292;10.572;2023-04-19T06:19:02;96902.25;;;7.94;100.00
65614;BME280;52283;49.292;10.572;2023-04-19T06:21:29;96906.41;;;7.90;100.00
65614;BME280;52283;49.292;10.572;2023-04-19T06:23:55;96902.72;;;7.93;100.00
65614;BME280;52283;49.292;10.572;2023-04-19T06:26:22;96901.56;;;8.00;100.00
65614;BME280;52283;49.292;10.572;2023-04-19T06:28:49;96905.94;;;8.15;100.00
65614;BME280;52283;49.292;10.572;2023-04-19T06:31:16;96906.22;;;8.17;100.00
65614;BME280;52283;49.292;10.572;2023-04-19T06:33:43;96903.88;;;8.01;100.00
65614;BME280;52283;49.292;10.572;2023-04-19T06:36:10;96902.25;;;7.94;100.00
65614;BME280;52283;49.292;10.572;2023-04-19T06:38:36;96897.91;;;7.93;100.00
65614;BME280;52283;49.292;10.572;2023-04-19T06:41:04;96895.47;;;7.86;100.00
65614;BME280;52283;49.292;10.572;2023-04-19T06:43:30;96896.72;;;7.85;100.00
65614;BME280;52283;49.292;10.572;2023-04-19T06:45:57;96902.44;;;8.06;100.00
65614;BME280;52283;49.292;10.572;2023-04-19T06:48:25;96902.88;;;8.13;100.00
65614;BME280;52283;49.292;10.572;2023-04-19T06:50:51;96893.22;;;8.00;100.00
65614;BME280;52283;49.292;10.572;2023-04-19T06:53:18;96903.41;;;8.03;100.00
65614;BME280;52283;49.292;10.572;2023-04-19T06:55:45;96895.16;;;8.08;100.00
65614;BME280;52283;49.292;10.572;2023-04-19T06:58:11;96898.22;;;8.10;100.00
65614;BME280;52283;49.292;10.572;2023-04-19T07:00:38;96895.34;;;8.05;100.00
65614;BME280;52283;49.292;10.572;2023-04-19T07:03:05;96889.47;;;8.03;100.00
65614;BME280;52283;49.292;10.572;2023-04-19T07:05:32;96896.78;;;8.00;100.00
65614;BME280;52283;49.292;10.572;2023-04-19T07:07:59;96889.72;;;7.90;100.00
65614;BME280;52283;49.292;10.572;2023-04-19T07:10:25;96890.63;;;7.96;100.00
65614;BME280;52283;49.292;10.572;2023-04-19T07:12:52;96881.03;;;8.12;100.00
65614;BME280;52283;49.292;10.572;2023-04-19T07:15:18;96889.41;;;8.12;100.00
65614;BME280;52283;49.292;10.572;2023-04-19T07:17:45;96879.84;;;8.27;100.00
65614;BME280;52283;49.292;10.572;2023-04-19T07:20:12;96880.19;;;8.44;100.00
65614;BME280;52283;49.292;10.572;2023-04-19T07:22:39;96877.19;;;8.33;100.00
65614;BME280;52283;49.292;10.572;2023-04-19T07:25:07;96877.19;;;8.33;100.00
65614;BME280;52283;49.292;10.572;2023-04-19T07:27:33;96873.75;;;8.38;100.00
65614;BME280;52283;49.292;10.572;2023-04-19T07:30:00;96867.50;;;8.43;100.00
65614;BME280;52283;49.292;10.572;2023-04-19T07:32:26;96865.31;;;8.62;100.00
65614;BME280;52283;49.292;10.572;2023-04-19T07:34:53;96871.03;;;8.73;100.00
65614;BME280;52283;49.292;10.572;2023-04-19T07:37:19;96866.94;;;8.54;100.00
65614;BME280;52283;49.292;10.572;2023-04-19T07:39:47;96861.94;;;8.58;100.00
65614;BME280;52283;49.292;10.572;2023-04-19T07:42:14;96862.31;;;8.66;100.00
65614;BME280;52283;49.292;10.572;2023-04-19T07:44:40;96860.22;;;8.75;100.00
65614;BME280;52283;49.292;10.572;2023-04-19T07:47:07;96855.28;;;8.70;100.00
65614;BME280;52283;49.292;10.572;2023-04-19T07:49:33;96849.06;;;8.75;100.00
65614;BME280;52283;49.292;10.572;2023-04-19T07:52:00;96853.19;;;8.80;100.00
65614;BME280;52283;49.292;10.572;2023-04-19T07:54:27;96848.22;;;8.54;100.00
65614;BME280;52283;49.292;10.572;2023-04-19T07:56:55;96849.56;;;8.59;100.00
65614;BME280;52283;49.292;10.572;2023-04-19T07:59:23;96855.09;;;8.74;100.00
65614;BME280;52283;49.292;10.572;2023-04-19T08:01:49;96852.13;;;8.63;100.00
65614;BME280;52283;49.292;10.572;2023-04-19T08:04:16;96855.88;;;8.74;100.00
65614;BME280;52283;49.292;10.572;2023-04-19T08:06:44;96851.16;;;8.66;100.00
65614;BME280;52283;49.292;10.572;2023-04-19T08:09:10;96845.50;;;8.60;100.00
65614;BME280;52283;49.292;10.572;2023-04-19T08:11:37;96844.84;;;8.50;100.00
65614;BME280;52283;49.292;10.572;2023-04-19T08:14:05;96843.59;;;8.66;100.00
65614;BME280;52283;49.292;10.572;2023-04-19T08:16:31;96841.66;;;8.72;100.00
65614;BME280;52283;49.292;10.572;2023-04-19T08:18:58;96839.06;;;8.83;100.00
65614;BME280;52283;49.292;10.572;2023-04-19T08:21:24;96849.91;;;8.96;100.00
65614;BME280;52283;49.292;10.572;2023-04-19T08:23:51;96839.03;;;8.98;100.00
65614;BME280;52283;49.292;10.572;2023-04-19T08:26:18;96847.97;;;8.88;100.00
65614;BME280;52283;49.292;10.572;2023-04-19T08:28:44;96847.06;;;8.61;100.00
65614;BME280;52283;49.292;10.572;2023-04-19T08:31:12;96841.97;;;8.60;100.00
65614;BME280;52283;49.292;10.572;2023-04-19T08:33:38;96841.44;;;8.32;100.00
65614;BME280;52283;49.292;10.572;2023-04-19T08:36:06;96840.38;;;8.29;100.00
65614;BME280;52283;49.292;10.572;2023-04-19T08:38:32;96841.91;;;8.30;100.00
65614;BME280;52283;49.292;10.572;2023-04-19T08:40:59;96846.19;;;8.02;100.00
65614;BME280;52283;49.292;10.572;2023-04-19T08:43:29;96847.44;;;8.01;100.00
65614;BME280;52283;49.292;10.572;2023-04-19T08:45:57;96849.22;;;8.13;100.00
65614;BME280;52283;49.292;10.572;2023-04-19T08:48:26;96850.38;;;8.21;100.00
65614;BME280;52283;49.292;10.572;2023-04-19T08:50:54;96837.75;;;8.11;100.00
65614;BME280;52283;49.292;10.572;2023-04-19T08:53:22;96835.41;;;8.33;100.00
65614;BME280;52283;49.292;10.572;2023-04-19T08:55:50;96834.31;;;8.31;100.00
65614;BME280;52283;49.292;10.572;2023-04-19T08:58:18;96836.22;;;8.34;100.00
65614;BME280;52283;49.292;10.572;2023-04-19T09:00:45;96837.47;;;7.94;100.00
65614;BME280;52283;49.292;10.572;2023-04-19T09:03:11;96835.94;;;7.93;100.00
65614;BME280;52283;49.292;10.572;2023-04-19T09:05:39;96835.44;;;8.09;100.00
65614;BME280;52283;49.292;10.572;2023-04-19T09:08:22;96842.97;;;8.18;100.00
65614;BME280;52283;49.292;10.572;2023-04-19T09:10:54;96835.84;;;8.02;100.00
65614;BME280;52283;49.292;10.572;2023-04-19T09:13:21;96826.19;;;7.88;100.00
65614;BME280;52283;49.292;10.572;2023-04-19T09:15:48;96829.25;;;7.76;100.00
65614;BME280;52283;49.292;10.572;2023-04-19T09:18:15;96830.94;;;7.97;100.00
65614;BME280;52283;49.292;10.572;2023-04-19T09:20:43;96823.28;;;7.68;100.00
65614;BME280;52283;49.292;10.572;2023-04-19T09:23:12;96832.63;;;7.80;100.00
65614;BME280;52283;49.292;10.572;2023-04-19T09:25:39;96822.59;;;7.58;100.00
65614;BME280;52283;49.292;10.572;2023-04-19T09:28:09;96821.00;;;7.43;100.00
65614;BME280;52283;49.292;10.572;2023-04-19T09:30:36;96822.59;;;7.58;100.00
65614;BME280;52283;49.292;10.572;2023-04-19T09:33:03;96820.75;;;7.55;100.00
65614;BME280;52283;49.292;10.572;2023-04-19T09:35:40;96824.78;;;7.54;100.00
65614;BME280;52283;49.292;10.572;2023-04-19T09:38:09;96819.41;;;7.51;100.00
65614;BME280;52283;49.292;10.572;2023-04-19T09:40:36;96822.81;;;7.46;100.00
65614;BME280;52283;49.292;10.572;2023-04-19T09:43:03;96825.09;;;7.32;100.00
65614;BME280;52283;49.292;10.572;2023-04-19T09:45:38;96828.16;;;7.34;100.00
65614;BME280;52283;49.292;10.572;2023-04-19T09:48:06;96828.03;;;7.53;100.00
65614;BME280;52283;49.292;10.572;2023-04-19T09:50:33;96818.78;;;7.47;100.00
65614;BME280;52283;49.292;10.572;2023-04-19T09:53:01;96826.06;;;7.68;100.00
65614;BME280;52283;49.292;10.572;2023-04-19T09:55:29;96819.81;;;7.34;100.00
65614;BME280;52283;49.292;10.572;2023-04-19T09:57:56;96828.38;;;7.46;100.00
65614;BME280;52283;49.292;10.572;2023-04-19T10:00:23;96822.28;;;7.56;100.00
65614;BME280;52283;49.292;10.572;2023-04-19T10:02:51;96813.28;;;7.61;100.00
65614;BME280;52283;49.292;10.572;2023-04-19T10:05:21;96824.53;;;7.43;100.00
65614;BME280;52283;49.292;10.572;2023-04-19T10:07:49;96819.72;;;7.68;100.00
65614;BME280;52283;49.292;10.572;2023-04-19T10:10:16;96819.28;;;7.84;100.00
65614;BME280;52283;49.292;10.572;2023-04-19T10:12:47;96818.28;;;7.57;100.00
65614;BME280;52283;49.292;10.572;2023-04-19T10:15:15;96818.28;;;7.33;100.00
65614;BME280;52283;49.292;10.572;2023-04-19T10:17:42;96804.69;;;7.36;100.00
65614;BME280;52283;49.292;10.572;2023-04-19T10:20:16;96816.41;;;7.78;100.00
65614;BME280;52283;49.292;10.572;2023-04-19T10:22:44;96817.72;;;7.68;100.00
65614;BME280;52283;49.292;10.572;2023-04-19T10:25:11;96815.25;;;7.85;100.00
65614;BME280;52283;49.292;10.572;2023-04-19T10:27:38;96813.38;;;7.52;100.00
65614;BME280;52283;49.292;10.572;2023-04-19T10:30:16;96811.22;;;7.86;100.00
65614;BME280;52283;49.292;10.572;2023-04-19T10:32:43;96812.72;;;8.11;100.00
65614;BME280;52283;49.292;10.572;2023-04-19T10:35:18;96804.00;;;8.18;100.00
65614;BME280;52283;49.292;10.572;2023-04-19T10:38:09;96806.16;;;7.84;100.00
65614;BME280;52283;49.292;10.572;2023-04-19T10:40:57;96805.03;;;8.06;100.00
65614;BME280;52283;49.292;10.572;2023-04-19T10:43:25;96801.78;;;7.92;100.00
65614;BME280;52283;49.292;10.572;2023-04-19T10:45:54;96804.00;;;7.64;100.00
65614;BME280;52283;49.292;10.572;2023-04-19T10:48:51;96807.88;;;7.82;100.00
65614;BME280;52283;49.292;10.572;2023-04-19T10:51:19;96809.50;;;7.88;100.00
65614;BME280;52283;49.292;10.572;2023-04-19T10:53:52;96798.69;;;8.05;100.00
65614;BME280;52283;49.292;10.572;2023-04-19T10:56:20;96793.22;;;8.11;100.00
65614;BME280;52283;49.292;10.572;2023-04-19T10:59:12;96795.72;;;8.09;100.00
65614;BME280;52283;49.292;10.572;2023-04-19T11:01:49;96793.09;;;7.90;100.00
65614;BME280;52283;49.292;10.572;2023-04-19T11:04:17;96791.31;;;8.02;100.00
65614;BME280;52283;49.292;10.572;2023-04-19T11:06:58;96799.00;;;7.92;100.00
65614;BME280;52283;49.292;10.572;2023-04-19T11:09:28;96787.00;;;8.16;100.00
65614;BME280;52283;49.292;10.572;2023-04-19T11:11:58;96781.41;;;8.31;100.00
65614;BME280;52283;49.292;10.572;2023-04-19T11:14:25;96782.69;;;8.44;100.00
65614;BME280;52283;49.292;10.572;2023-04-19T11:16:53;96770.44;;;8.36;100.00
65614;BME280;52283;49.292;10.572;2023-04-19T11:19:20;96768.94;;;8.11;100.00
65614;BME280;52283;49.292;10.572;2023-04-19T11:21:47;96757.72;;;8.50;100.00
65614;BME280;52283;49.292;10.572;2023-04-19T11:24:14;96754.69;;;8.83;100.00
65614;BME280;52283;49.292;10.572;2023-04-19T11:26:43;96743.44;;;9.12;100.00
65614;BME280;52283;49.292;10.572;2023-04-19T11:29:10;96743.22;;;9.36;100.00
65614;BME280;52283;49.292;10.572;2023-04-19T11:31:37;96740.31;;;9.45;100.00
65614;BME280;52283;49.292;10.572;2023-04-19T11:34:05;96739.53;;;9.91;100.00
65614;BME280;52283;49.292;10.572;2023-04-19T11:36:31;96725.94;;;10.25;100.00
65614;BME280;52283;49.292;10.572;2023-04-19T11:39:01;96718.34;;;10.62;100.00
65614;BME280;52283;49.292;10.572;2023-04-19T11:41:27;96721.19;;;10.36;100.00
65614;BME280;52283;49.292;10.572;2023-04-19T11:43:54;96712.53;;;10.08;100.00
65614;BME280;52283;49.292;10.572;2023-04-19T11:46:20;96724.25;;;9.61;100.00
65614;BME280;52283;49.292;10.572;2023-04-19T11:48:50;96711.94;;;9.73;100.00
65614;BME280;52283;49.292;10.572;2023-04-19T11:51:19;96693.97;;;10.63;92.62
65614;BME280;52283;49.292;10.572;2023-04-19T11:53:46;96679.38;;;11.55;86.42
65614;BME280;52283;49.292;10.572;2023-04-19T11:56:12;96669.56;;;11.99;80.40
65614;BME280;52283;49.292;10.572;2023-04-19T11:58:41;96680.56;;;11.26;83.71
65614;BME280;52283;49.292;10.572;2023-04-19T12:01:10;96695.63;;;10.49;90.45
65614;BME280;52283;49.292;10.572;2023-04-19T12:03:40;96692.47;;;10.36;89.14
65614;BME280;52283;49.292;10.572;2023-04-19T12:06:10;96664.44;;;11.86;80.92
65614;BME280;52283;49.292;10.572;2023-04-19T12:08:42;96651.34;;;13.18;75.97
65614;BME280;52283;49.292;10.572;2023-04-19T12:11:08;96649.44;;;11.78;74.95
65614;BME280;52283;49.292;10.572;2023-04-19T12:13:35;96673.16;;;11.18;79.68
65614;BME280;52283;49.292;10.572;2023-04-19T12:16:02;96668.59;;;10.72;77.77
65614;BME280;52283;49.292;10.572;2023-04-19T12:18:41;96653.69;;;11.57;72.02
65614;BME280;52283;49.292;10.572;2023-04-19T12:21:09;96634.31;;;12.88;68.39
65614;BME280;52283;49.292;10.572;2023-04-19T12:23:36;96632.56;;;12.68;63.82
65614;BME280;52283;49.292;10.572;2023-04-19T12:26:04;96639.53;;;12.33;65.76
65614;BME280;52283;49.292;10.572;2023-04-19T12:28:31;96619.19;;;13.13;61.99
65614;BME280;52283;49.292;10.572;2023-04-19T12:30:57;96621.59;;;12.81;61.00
65614;BME280;52283;49.292;10.572;2023-04-19T12:33:23;96631.13;;;11.88;64.78
65614;BME280;52283;49.292;10.572;2023-04-19T12:35:50;96646.31;;;10.83;70.24
65614;BME280;52283;49.292;10.572;2023-04-19T12:38:16;96665.63;;;10.44;73.16
65614;BME280;52283;49.292;10.572;2023-04-19T12:40:43;96660.31;;;10.89;72.81
65614;BME280;52283;49.292;10.572;2023-04-19T12:43:11;96651.69;;;10.98;74.93
65614;BME280;52283;49.292;10.572;2023-04-19T12:45:37;96653.88;;;10.72;76.23
65614;BME280;52283;49.292;10.572;2023-04-19T12:48:03;96648.72;;;11.07;77.60
65614;BME280;52283;49.292;10.572;2023-04-19T12:50:31;96634.50;;;11.22;74.52
65614;BME280;52283;49.292;10.572;2023-04-19T12:52:57;96630.53;;;11.51;71.32